This is the latest recevied weather packets stored in our database for station/object OE-11331. If no packets are shown the sender has not sent any weather packets the latest 10 day(s).
| Time | Temp. | Humidity | Pressure | Rain* | Wind** | Luminosity | Snow |
|---|---|---|---|---|---|---|---|
| 1787996507 | 22.22° C | 54% | 1016.4 hPa | 0 mm | - | 173 W/m² | - |
| 1787996134 | 22.22° C | 51% | 1016.4 hPa | 0 mm | - | 97 W/m² | - |
| 1787995534 | 22.22° C | 52% | 1016.5 hPa | 0 mm | - | 87 W/m² | - |
| 1787994707 | 22.22° C | 52% | 1016.6 hPa | 0 mm | - | 119 W/m² | - |
| 1787994334 | 22.78° C | 51% | 1016 hPa | 0 mm | - | 227 W/m² | - |
| 1787993734 | 22.78° C | 51% | 1016.1 hPa | 0 mm | - | 281 W/m² | - |
| 1787992906 | 22.78° C | 48% | 1016.3 hPa | 0 mm | - | 455 W/m² | - |
| 1787992533 | 22.22° C | 49% | 1016.5 hPa | 0 mm | - | 303 W/m² | - |
| 1787991933 | 22.78° C | 49% | 1016.1 hPa | 0 mm | - | 660 W/m² | - |
| 1787991107 | 22.22° C | 50% | 1016 hPa | 0 mm | - | 552 W/m² | - |
| 1787990733 | 21.67° C | 51% | 1016 hPa | 0 mm | - | 379 W/m² | - |
| 1787990134 | 21.67° C | 52% | 1015.9 hPa | 0 mm | - | 368 W/m² | - |
| 1787989306 | 21.11° C | 52% | 1016.1 hPa | 0 mm | - | 368 W/m² | - |
| 1787988333 | 21.67° C | 55% | 1015.8 hPa | 0 mm | - | 433 W/m² | - |
| 1787987507 | 21.11° C | 56% | 1016.1 hPa | 0 mm | - | 390 W/m² | - |
| 1787987134 | 20.56° C | 56% | 1016 hPa | 0 mm | - | 314 W/m² | - |
| 1787986534 | 20.56° C | 56% | 1016.2 hPa | 0 mm | - | 281 W/m² | - |
| 1787985707 | 20.56° C | 57% | 1016.2 hPa | 0 mm | - | 195 W/m² | - |
| 1787985333 | 20° C | 59% | 1016 hPa | 0 mm | - | 152 W/m² | - |
| 1787984734 | 20° C | 57% | 1016.3 hPa | 0 mm | - | 108 W/m² | - |
| 1787983907 | 20° C | 56% | 1016 hPa | 0 mm | - | 119 W/m² | - |
| 1787982934 | 20° C | 54% | 1016 hPa | 0 mm | - | 65 W/m² | - |
| 1787982106 | 20° C | 55% | 1015.9 hPa | 0 mm | - | 43 W/m² | - |
| 1787981734 | 20° C | 55% | 1015.7 hPa | 0 mm | - | 43 W/m² | - |
| 1787981133 | 20° C | 55% | 1015.6 hPa | 0 mm | - | 32 W/m² | - |
* Rain latest hour (hover to see other rain measurements)
** Current wind speed in m/s (hover to see current wind gust speed)